createdAt,value
2019-04-21T00:03:21.418Z,34.20
2019-04-21T00:06:48.558Z,34.20
2019-04-21T00:10:13.122Z,34.30
2019-04-21T00:13:22.585Z,34.10
2019-04-21T00:16:32.069Z,34.20
2019-04-21T00:20:16.539Z,34.20
2019-04-21T00:23:42.439Z,34.40
2019-04-21T00:26:57.379Z,34.40
2019-04-21T00:30:26.950Z,34.10
2019-04-21T00:33:29.948Z,34.40
2019-04-21T00:36:51.512Z,34.70
2019-04-21T00:40:20.302Z,34.10
2019-04-21T00:43:28.256Z,34.30
2019-04-21T00:50:17.919Z,34.20
2019-04-21T00:53:43.548Z,34.10
2019-04-21T00:56:56.201Z,34.30
2019-04-21T01:00:11.659Z,34.30
2019-04-21T01:03:26.406Z,34.10
2019-04-21T01:06:54.418Z,34.20
2019-04-21T01:10:06.580Z,34.30
2019-04-21T01:13:36.268Z,34.10
2019-04-21T01:16:56.004Z,34.00
2019-04-21T01:20:01.195Z,34.30
2019-04-21T01:23:02.294Z,34.30
2019-04-21T01:26:39.341Z,34.40
2019-04-21T01:30:08.622Z,34.20
2019-04-21T01:33:21.605Z,34.30
2019-04-21T01:36:34.613Z,34.10
2019-04-21T01:39:53.216Z,34.20
2019-04-21T01:43:07.721Z,34.10
2019-04-21T01:46:25.940Z,34.00
2019-04-21T01:49:37.045Z,34.20
2019-04-21T01:53:02.034Z,34.20
2019-04-21T01:56:38.864Z,34.00
2019-04-21T01:59:54.329Z,34.20
2019-04-21T02:03:36.243Z,34.10
2019-04-21T02:06:33.604Z,34.30
2019-04-21T02:09:51.305Z,34.00
2019-04-21T02:13:03.223Z,34.20
2019-04-21T02:16:23.207Z,34.60
2019-04-21T02:19:35.883Z,34.20
2019-04-21T02:26:19.120Z,34.00
2019-04-21T02:29:37.661Z,34.30
2019-04-21T02:36:32.610Z,34.30
2019-04-21T02:43:00.213Z,34.20
2019-04-21T02:56:01.052Z,34.30
2019-04-21T03:06:24.834Z,34.00
2019-04-21T03:13:07.667Z,34.00
2019-04-21T03:16:23.401Z,34.00
2019-04-21T03:19:48.131Z,34.00
2019-04-21T03:22:57.304Z,34.00
2019-04-21T03:26:10.332Z,34.80
2019-04-21T03:29:28.263Z,34.00
2019-04-21T03:36:38.196Z,34.00
2019-04-21T03:39:09.455Z,34.00
2019-04-21T03:42:38.518Z,34.20
2019-04-21T03:45:51.494Z,34.20
2019-04-21T03:49:11.839Z,34.30
2019-04-21T03:52:30.245Z,34.20
2019-04-21T03:55:53.165Z,34.00
2019-04-21T03:59:12.685Z,34.20
2019-04-21T04:02:24.408Z,34.00
2019-04-21T04:12:34.359Z,34.00
2019-04-21T04:15:56.491Z,34.00
2019-04-21T04:19:09.623Z,34.90
2019-04-21T04:22:31.070Z,34.20
2019-04-21T04:25:43.762Z,33.90
2019-04-21T04:32:24.912Z,34.00
2019-04-21T04:39:29.843Z,34.20
2019-04-21T04:45:53.691Z,34.20
2019-04-21T04:49:10.987Z,34.20
2019-04-21T04:55:54.700Z,34.00
2019-04-21T05:02:33.873Z,33.90
2019-04-21T05:05:45.118Z,33.90
2019-04-21T05:09:11.343Z,34.00
2019-04-21T05:12:01.627Z,34.00
2019-04-21T05:15:17.866Z,34.10
2019-04-21T05:18:50.432Z,33.90
2019-04-21T05:21:55.383Z,34.10
2019-04-21T05:25:03.733Z,33.90
2019-04-21T05:28:16.652Z,34.10
2019-04-21T05:32:00.402Z,34.00
2019-04-21T05:35:24.447Z,33.90
2019-04-21T05:38:53.363Z,33.90
2019-04-21T05:42:00.771Z,34.10
2019-04-21T05:45:38.687Z,33.90
2019-04-21T05:48:52.313Z,34.10
2019-04-21T05:52:08.223Z,34.10
2019-04-21T05:55:40.568Z,34.10
2019-04-21T05:58:51.882Z,33.90
2019-04-21T06:02:18.443Z,34.00
2019-04-21T06:05:37.385Z,34.10
2019-04-21T06:08:46.976Z,34.00
2019-04-21T06:12:03.177Z,34.10
2019-04-21T06:15:22.448Z,34.70
2019-04-21T06:18:46.527Z,33.90
2019-04-21T06:21:51.114Z,34.10
2019-04-21T06:28:33.667Z,34.10
2019-04-21T06:35:12.473Z,33.80
2019-04-21T06:38:36.039Z,34.00
2019-04-21T06:45:04.139Z,33.80
2019-04-21T06:48:21.006Z,33.80
2019-04-21T06:51:32.273Z,33.50
2019-04-21T06:54:47.080Z,33.90
2019-04-21T06:58:07.889Z,34.00
2019-04-21T07:01:24.121Z,34.10
2019-04-21T07:04:46.857Z,34.00
2019-04-21T07:07:57.104Z,34.30
2019-04-21T07:11:08.343Z,34.30
2019-04-21T07:17:42.636Z,33.50
2019-04-21T07:21:00.096Z,34.10
2019-04-21T07:24:21.810Z,34.10
2019-04-21T07:27:35.349Z,34.10
2019-04-21T07:30:59.040Z,34.20
2019-04-21T07:37:28.135Z,34.40
2019-04-21T07:40:36.530Z,34.20
2019-04-21T07:43:57.106Z,34.40
2019-04-21T07:51:14.022Z,34.40
2019-04-21T07:54:32.035Z,34.50
2019-04-21T07:57:39.470Z,34.20
2019-04-21T08:00:51.450Z,34.40
2019-04-21T08:04:35.710Z,34.50
2019-04-21T08:07:42.126Z,34.30
2019-04-21T08:10:53.879Z,34.30
2019-04-21T08:14:11.623Z,34.50
2019-04-21T08:17:24.623Z,34.20
2019-04-21T08:20:28.888Z,33.80
2019-04-21T08:23:58.047Z,34.40
2019-04-21T08:27:10.944Z,34.10
2019-04-21T08:30:24.343Z,34.00
2019-04-21T08:33:50.335Z,34.30
2019-04-21T08:36:58.666Z,34.00
2019-04-21T08:43:40.666Z,34.30
2019-04-21T08:46:52.626Z,34.00
2019-04-21T08:50:08.478Z,34.20
2019-04-21T08:53:25.547Z,34.00
2019-04-21T08:57:06.147Z,34.20
2019-04-21T09:04:06.121Z,34.20
2019-04-21T09:07:33.073Z,34.20
2019-04-21T09:10:39.221Z,33.90
2019-04-21T09:13:54.718Z,34.10
2019-04-21T09:16:57.756Z,34.00
2019-04-21T09:20:13.853Z,34.20
2019-04-21T09:23:36.383Z,34.20
2019-04-21T09:26:36.995Z,34.10
2019-04-21T09:29:40.643Z,34.10
2019-04-21T09:32:55.026Z,33.60
2019-04-21T09:36:14.539Z,33.90
2019-04-21T09:39:29.705Z,34.00
2019-04-21T09:42:55.137Z,33.90
2019-04-21T09:46:02.302Z,34.00
2019-04-21T09:49:22.450Z,34.10
2019-04-21T09:52:41.854Z,34.00
2019-04-21T09:55:58.145Z,34.00
2019-04-21T09:59:17.975Z,34.10
2019-04-21T10:02:34.317Z,34.00
2019-04-21T10:05:45.209Z,34.30
2019-04-21T10:09:04.242Z,34.40
2019-04-21T10:12:17.487Z,34.50
2019-04-21T10:15:33.350Z,34.90
2019-04-21T10:18:50.441Z,34.70
2019-04-21T10:22:05.994Z,35.00
2019-04-21T10:25:22.692Z,35.20
2019-04-21T10:28:39.152Z,35.10
2019-04-21T10:31:55.137Z,35.20
2019-04-21T10:35:11.161Z,34.90
2019-04-21T10:38:35.485Z,34.70
2019-04-21T10:41:45.643Z,34.70
2019-04-21T10:45:01.219Z,34.80
2019-04-21T10:48:16.994Z,34.60
2019-04-21T10:51:32.902Z,34.60
2019-04-21T10:55:11.213Z,34.20
2019-04-21T10:58:11.132Z,34.70
2019-04-21T11:01:27.411Z,34.50
2019-04-21T11:08:19.083Z,34.70
2019-04-21T11:11:25.843Z,34.70
2019-04-21T11:14:43.019Z,34.70
2019-04-21T11:17:59.866Z,34.40
2019-04-21T11:21:16.667Z,34.50
2019-04-21T11:24:33.174Z,34.50
2019-04-21T11:27:49.176Z,34.50
2019-04-21T11:31:06.899Z,34.60
2019-04-21T11:34:11.324Z,34.60
2019-04-21T11:37:34.783Z,34.60
2019-04-21T11:40:51.769Z,34.30
2019-04-21T11:44:07.936Z,34.30
2019-04-21T11:47:28.615Z,34.50
2019-04-21T11:50:43.854Z,34.20
2019-04-21T11:57:28.014Z,34.30
2019-04-21T12:00:42.176Z,34.70
2019-04-21T12:03:57.975Z,34.80
2019-04-21T12:07:01.875Z,34.90
2019-04-21T12:10:24.614Z,35.70
2019-04-21T12:13:47.967Z,35.00
2019-04-21T12:17:05.557Z,34.90
2019-04-21T12:20:21.675Z,35.20
2019-04-21T12:23:38.465Z,35.10
2019-04-21T12:26:56.285Z,35.00
2019-04-21T12:30:13.751Z,35.00
2019-04-21T12:33:34.261Z,35.00
2019-04-21T12:36:38.052Z,35.00
2019-04-21T12:40:03.258Z,35.20
2019-04-21T12:43:19.194Z,34.90
2019-04-21T12:46:34.432Z,34.90
2019-04-21T12:49:49.935Z,34.90
2019-04-21T12:53:05.717Z,35.00
2019-04-21T12:56:21.023Z,34.80
2019-04-21T12:59:37.823Z,34.90
2019-04-21T13:02:54.057Z,35.10
2019-04-21T13:06:10.020Z,35.00
2019-04-21T13:09:17.979Z,34.80
2019-04-21T13:12:19.364Z,35.00
2019-04-21T13:15:22.730Z,35.00
2019-04-21T13:18:27.017Z,35.30
2019-04-21T13:21:30.414Z,36.00
2019-04-21T13:24:35.752Z,35.50
2019-04-21T13:27:58.704Z,35.40
2019-04-21T13:31:22.364Z,35.40
2019-04-21T13:34:39.974Z,35.10
2019-04-21T13:37:56.291Z,35.20
2019-04-21T13:44:41.309Z,35.00
2019-04-21T13:47:57.061Z,35.00
2019-04-21T13:51:13.402Z,34.90
2019-04-21T13:54:29.671Z,35.10
2019-04-21T13:57:46.486Z,35.00
2019-04-21T14:01:03.404Z,34.90
2019-04-21T14:04:19.866Z,34.90
2019-04-21T14:07:36.431Z,34.80
2019-04-21T14:10:51.655Z,34.70
2019-04-21T14:14:08.260Z,34.80
2019-04-21T14:17:24.677Z,35.00
2019-04-21T14:20:40.400Z,34.70
2019-04-21T14:23:58.135Z,34.50
2019-04-21T14:27:14.428Z,34.50
2019-04-21T14:30:30.515Z,34.50
2019-04-21T14:33:47.877Z,34.50
2019-04-21T14:37:04.518Z,34.50
2019-04-21T14:40:23.985Z,34.30
2019-04-21T14:43:38.405Z,34.50
2019-04-21T14:46:57.376Z,34.30
2019-04-21T14:50:15.549Z,34.40
2019-04-21T14:53:34.006Z,34.20
2019-04-21T15:00:24.750Z,34.50
2019-04-21T15:03:41.687Z,34.80
2019-04-21T15:06:57.665Z,35.00
2019-04-21T15:10:20.087Z,34.90
2019-04-21T15:13:30.314Z,34.90
2019-04-21T15:16:47.067Z,34.90
2019-04-21T15:19:58.733Z,34.80
2019-04-21T15:23:14.879Z,35.00
2019-04-21T15:26:30.478Z,34.60
2019-04-21T15:29:46.832Z,34.60
2019-04-21T15:33:04.340Z,34.60
2019-04-21T15:36:20.959Z,34.60
2019-04-21T15:39:38.331Z,34.60
2019-04-21T15:42:54.668Z,35.00
2019-04-21T15:46:11.010Z,34.50
2019-04-21T15:49:40.541Z,34.70
2019-04-21T15:52:47.532Z,34.50
2019-04-21T15:56:22.616Z,35.40
2019-04-21T15:59:42.276Z,34.70
2019-04-21T16:02:58.377Z,34.70
2019-04-21T16:06:13.890Z,34.40
2019-04-21T16:09:31.200Z,34.50
2019-04-21T16:12:47.549Z,34.40
2019-04-21T16:16:04.190Z,34.40
2019-04-21T16:19:20.225Z,34.50
2019-04-21T16:22:38.821Z,34.30
2019-04-21T16:29:39.671Z,34.70
2019-04-21T16:33:02.345Z,34.50
2019-04-21T16:36:25.485Z,34.50
2019-04-21T16:39:43.295Z,34.50
2019-04-21T16:43:00.255Z,34.30
2019-04-21T16:46:16.143Z,34.50
2019-04-21T16:49:29.787Z,34.40
2019-04-21T16:56:20.483Z,34.20
2019-04-21T17:02:58.700Z,34.50
2019-04-21T17:06:22.874Z,34.20
2019-04-21T17:09:38.983Z,34.20
2019-04-21T17:12:55.960Z,34.20
2019-04-21T17:16:40.802Z,34.10
2019-04-21T17:19:36.023Z,34.30
2019-04-21T17:22:45.770Z,34.30
2019-04-21T17:26:01.763Z,34.20
2019-04-21T17:29:18.765Z,34.10
2019-04-21T17:32:40.358Z,34.10
2019-04-21T17:35:51.279Z,34.10
2019-04-21T17:39:06.935Z,34.30
2019-04-21T17:42:29.773Z,34.00
2019-04-21T17:45:41.394Z,34.10
2019-04-21T17:48:58.922Z,34.30
2019-04-21T17:52:19.694Z,34.20
2019-04-21T17:55:40.607Z,34.10
2019-04-21T17:59:16.413Z,34.10
2019-04-21T18:02:38.531Z,34.00
2019-04-21T18:05:48.732Z,33.90
2019-04-21T18:09:18.270Z,34.00
2019-04-21T18:15:41.219Z,33.90
2019-04-21T18:18:41.150Z,33.90
2019-04-21T18:22:17.473Z,33.90
2019-04-21T18:25:45.177Z,33.90
2019-04-21T18:28:53.787Z,33.90
2019-04-21T18:32:08.459Z,34.10
2019-04-21T18:35:31.488Z,34.20
2019-04-21T18:39:04.190Z,34.10
2019-04-21T18:42:26.682Z,34.40
2019-04-21T18:45:55.368Z,34.50
2019-04-21T18:52:45.544Z,34.30
2019-04-21T18:55:55.756Z,34.40
2019-04-21T18:59:04.479Z,34.60
2019-04-21T19:02:22.302Z,34.60
2019-04-21T19:05:41.159Z,34.50
2019-04-21T19:09:10.217Z,34.70
2019-04-21T19:12:49.104Z,34.70
2019-04-21T19:15:27.218Z,34.70
2019-04-21T19:18:56.523Z,34.80
2019-04-21T19:22:21.784Z,34.80
2019-04-21T19:25:25.819Z,34.50
2019-04-21T19:28:36.230Z,35.40
2019-04-21T19:31:54.889Z,34.90
2019-04-21T19:35:04.172Z,34.70
2019-04-21T19:38:30.670Z,34.70
2019-04-21T19:41:51.001Z,34.70
2019-04-21T19:45:13.863Z,34.80
2019-04-21T19:51:31.388Z,34.60
2019-04-21T19:54:46.496Z,34.90
2019-04-21T19:58:00.862Z,34.80
2019-04-21T20:01:17.371Z,34.60
2019-04-21T20:04:40.707Z,34.80
2019-04-21T20:08:08.283Z,34.80
2019-04-21T20:11:27.111Z,34.70
2019-04-21T20:14:57.645Z,34.60
2019-04-21T20:18:00.155Z,34.60
2019-04-21T20:20:59.498Z,34.60
2019-04-21T20:24:22.472Z,34.60
2019-04-21T20:27:43.080Z,35.20
2019-04-21T20:31:08.276Z,34.50
2019-04-21T20:34:29.805Z,34.80
2019-04-21T20:37:42.437Z,34.70
2019-04-21T20:40:51.006Z,34.60
2019-04-21T20:44:19.115Z,34.70
2019-04-21T20:47:25.640Z,34.50
2019-04-21T20:50:56.221Z,34.60
2019-04-21T20:54:12.616Z,34.80
2019-04-21T20:57:26.041Z,34.80
2019-04-21T21:00:54.748Z,34.80
2019-04-21T21:03:51.811Z,34.50
2019-04-21T21:07:30.610Z,35.10
2019-04-21T21:10:34.779Z,34.60
2019-04-21T21:13:55.425Z,34.60
2019-04-21T21:17:13.068Z,34.50
2019-04-21T21:20:24.888Z,34.40
2019-04-21T21:23:42.719Z,34.40
2019-04-21T21:26:57.843Z,34.30
2019-04-21T21:30:14.531Z,34.30
2019-04-21T21:33:41.248Z,34.30
2019-04-21T21:36:47.748Z,34.40
2019-04-21T21:40:10.635Z,34.50
2019-04-21T21:43:12.892Z,35.10
2019-04-21T21:46:43.004Z,34.30
2019-04-21T21:49:55.382Z,34.10
2019-04-21T21:53:07.741Z,34.40
2019-04-21T21:56:16.862Z,34.10
2019-04-21T21:59:36.476Z,34.40
2019-04-21T22:02:53.472Z,34.20
2019-04-21T22:06:10.851Z,34.10
2019-04-21T22:09:26.167Z,34.40
2019-04-21T22:12:52.871Z,34.40
2019-04-21T22:16:03.851Z,34.10
2019-04-21T22:19:34.769Z,34.20
2019-04-21T22:22:45.135Z,34.10
2019-04-21T22:25:51.625Z,34.30
2019-04-21T22:29:07.827Z,34.10
2019-04-21T22:32:27.487Z,34.30
2019-04-21T22:35:48.914Z,34.10
2019-04-21T22:39:17.616Z,34.10
2019-04-21T22:42:22.445Z,34.10
2019-04-21T22:45:33.475Z,34.10
2019-04-21T22:48:53.118Z,34.30
2019-04-21T22:52:11.104Z,34.30
2019-04-21T22:55:31.593Z,34.20
2019-04-21T22:58:48.265Z,34.10
2019-04-21T23:05:36.349Z,34.30
2019-04-21T23:08:49.819Z,34.30
2019-04-21T23:12:05.727Z,34.20
2019-04-21T23:15:28.271Z,34.30
2019-04-21T23:18:50.442Z,34.10
2019-04-21T23:22:20.375Z,34.10
2019-04-21T23:25:32.159Z,34.30
2019-04-21T23:28:51.050Z,34.00
2019-04-21T23:32:03.487Z,34.30
2019-04-21T23:35:13.309Z,34.10
2019-04-21T23:38:29.216Z,34.20
2019-04-21T23:41:47.115Z,34.10
2019-04-21T23:44:58.542Z,34.70
2019-04-21T23:48:26.009Z,34.00
2019-04-21T23:51:40.762Z,34.30
2019-04-21T23:54:47.448Z,34.30
